Time;durP1;ratioP1;P1;durP2;ratioP2;P2;SDS_P1;SDS_P2;PMS_P1;PMS_P2;Temp;Humidity;BMP_temperature;BMP_pressure;BME280_temperature;BME280_humidity;BME280_pressure;Samples;Min_cycle;Max_cycle;Signal;HPM_P1;HPM_P2
2022/06/20 00:01:20;;;;;;;2.42;0.60;;;15.00;99.90;;;;;;5050599;28;20075;-80
2022/06/20 00:03:49;;;;;;;3.17;0.40;;;15.00;99.90;;;;;;5050436;28;20067;-81
2022/06/20 00:06:20;;;;;;;1.50;0.40;;;15.00;99.90;;;;;;5050393;28;20045;-82
2022/06/20 00:08:49;;;;;;;1.52;0.77;;;15.00;99.90;;;;;;5049254;28;20048;-79
2022/06/20 00:11:20;;;;;;;1.50;0.52;;;15.00;99.90;;;;;;5048997;28;20040;-80
2022/06/20 00:13:50;;;;;;;2.25;1.05;;;15.00;99.90;;;;;;5025455;28;20194;-81
2022/06/20 00:16:19;;;;;;;3.42;0.70;;;15.10;99.90;;;;;;5048640;28;20068;-81
2022/06/20 00:18:47;;;;;;;2.92;0.82;;;15.10;99.90;;;;;;5050484;28;20072;-81
2022/06/20 00:21:16;;;;;;;4.43;0.80;;;15.10;99.90;;;;;;5048026;28;20056;-80
2022/06/20 00:23:45;;;;;;;3.40;1.05;;;15.00;99.90;;;;;;5045720;28;20041;-80
2022/06/20 00:26:13;;;;;;;5.90;1.40;;;14.90;99.90;;;;;;5048647;28;20060;-80
2022/06/20 00:28:41;;;;;;;5.97;1.65;;;14.90;99.90;;;;;;5051206;28;20056;-80
2022/06/20 00:31:08;;;;;;;4.65;1.10;;;14.80;99.90;;;;;;5049739;28;20056;-80
2022/06/20 00:33:36;;;;;;;5.20;1.05;;;14.80;99.90;;;;;;5045554;28;20049;-80
2022/06/20 00:36:04;;;;;;;9.85;1.38;;;14.70;99.90;;;;;;5040340;28;20049;-81
2022/06/20 00:38:31;;;;;;;4.78;1.20;;;14.60;99.90;;;;;;5050179;28;20079;-80
2022/06/20 00:41:05;;;;;;;7.72;1.92;;;14.60;99.90;;;;;;5048965;28;20053;-80
2022/06/20 00:43:38;;;;;;;3.75;1.23;;;14.60;99.90;;;;;;5049728;28;20053;-80
2022/06/20 00:46:32;;;;;;;4.05;1.20;;;14.50;99.90;;;;;;5051626;28;20134;-81
2022/06/20 00:49:22;;;;;;;7.70;1.98;;;14.60;99.90;;;;;;5049582;28;20102;-81
2022/06/20 00:52:13;;;;;;;4.85;1.50;;;14.60;99.90;;;;;;5049087;28;20059;-80
2022/06/20 00:55:04;;;;;;;4.18;1.27;;;14.50;99.90;;;;;;5030622;28;20532;-80
2022/06/20 00:57:55;;;;;;;6.47;1.33;;;14.50;99.90;;;;;;5043994;28;20424;-81
2022/06/20 01:00:42;;;;;;;5.38;1.20;;;14.50;99.90;;;;;;5031879;28;20409;-81
2022/06/20 01:03:32;;;;;;;2.90;0.90;;;14.50;99.90;;;;;;5029988;28;20052;-80
2022/06/20 01:06:24;;;;;;;4.97;1.42;;;14.40;99.90;;;;;;5049863;28;20052;-80
2022/06/20 01:09:11;;;;;;;5.15;1.27;;;14.40;99.90;;;;;;5048110;28;20542;-81
2022/06/20 01:12:02;;;;;;;3.05;1.35;;;14.40;99.90;;;;;;5049635;28;20479;-81
2022/06/20 01:14:49;;;;;;;5.63;1.73;;;14.50;99.90;;;;;;5050414;28;20463;-81
2022/06/20 01:17:39;;;;;;;2.97;1.00;;;14.50;99.90;;;;;;5049091;28;20535;-81
2022/06/20 01:20:30;;;;;;;3.97;1.40;;;14.50;99.90;;;;;;5050460;28;20067;-81
2022/06/20 01:23:31;;;;;;;3.55;1.38;;;14.50;99.90;;;;;;5050421;28;20122;-80
2022/06/20 01:26:32;;;;;;;5.00;1.30;;;14.40;99.90;;;;;;5048501;28;20055;-81
2022/06/20 01:29:20;;;;;;;4.78;1.52;;;14.40;99.90;;;;;;5050679;28;20122;-81
2022/06/20 01:32:06;;;;;;;4.07;1.02;;;14.40;99.90;;;;;;5050324;28;20536;-80
2022/06/20 01:34:53;;;;;;;4.35;1.20;;;14.40;99.90;;;;;;5048082;28;20159;-79
2022/06/20 01:37:40;;;;;;;7.78;1.10;;;14.50;99.90;;;;;;5029163;28;20429;-80
2022/06/20 01:40:26;;;;;;;3.88;1.30;;;14.50;99.90;;;;;;5030959;28;20094;-81
2022/06/20 01:43:11;;;;;;;19.55;7.15;;;14.60;99.90;;;;;;5047731;28;20064;-79
2022/06/20 01:46:00;;;;;;;11.57;3.33;;;14.60;99.90;;;;;;5046258;28;20102;-80
2022/06/20 01:48:50;;;;;;;9.30;5.25;;;14.50;99.90;;;;;;5049422;28;20060;-80
2022/06/20 01:51:43;;;;;;;6.45;3.00;;;14.40;99.90;;;;;;5051269;28;20052;-81
2022/06/20 01:54:33;;;;;;;17.10;8.45;;;14.30;99.90;;;;;;5047367;28;20063;-81
2022/06/20 01:57:21;;;;;;;15.80;7.45;;;14.30;99.90;;;;;;5043293;28;20044;-80
2022/06/20 02:00:12;;;;;;;18.42;8.73;;;14.30;99.90;;;;;;5048688;28;20063;-81
2022/06/20 02:03:06;;;;;;;17.65;9.38;;;14.40;99.90;;;;;;5048461;28;20075;-81
2022/06/20 02:05:56;;;;;;;18.13;9.52;;;14.40;99.90;;;;;;5049856;28;20055;-80
2022/06/20 02:08:44;;;;;;;28.45;15.43;;;14.60;99.90;;;;;;5050659;28;20492;-80
2022/06/20 02:11:34;;;;;;;18.23;10.45;;;14.80;99.90;;;;;;5048173;28;20138;-81
2022/06/20 02:14:24;;;;;;;4.00;2.03;;;14.90;99.90;;;;;;5042490;28;20055;-79
2022/06/20 02:17:13;;;;;;;4.50;1.38;;;15.10;99.90;;;;;;5049635;28;20175;-80
2022/06/20 02:20:05;;;;;;;10.20;6.72;;;15.10;99.90;;;;;;5050282;28;20060;-80
2022/06/20 02:22:53;;;;;;;8.65;3.72;;;15.10;99.90;;;;;;5048882;28;20059;-80
2022/06/20 02:25:39;;;;;;;12.18;7.20;;;15.00;99.90;;;;;;5049788;28;20060;-80
2022/06/20 02:28:32;;;;;;;4.82;2.97;;;14.90;99.90;;;;;;5053367;28;20056;-80
2022/06/20 02:31:18;;;;;;;4.90;2.03;;;14.80;99.90;;;;;;5051042;28;20056;-78
2022/06/20 02:34:04;;;;;;;2.72;1.05;;;14.60;99.90;;;;;;5052876;28;20238;-78
2022/06/20 02:36:51;;;;;;;4.72;0.98;;;14.50;99.90;;;;;;5051448;28;20047;-78
2022/06/20 02:39:38;;;;;;;2.78;0.80;;;14.40;99.90;;;;;;5050602;28;20059;-79
2022/06/20 02:42:30;;;;;;;3.53;0.90;;;14.40;99.90;;;;;;5043625;28;20110;-79
2022/06/20 02:45:18;;;;;;;4.82;1.30;;;14.30;99.90;;;;;;5051960;28;20055;-79
2022/06/20 02:48:07;;;;;;;3.20;1.58;;;14.20;99.90;;;;;;5051699;28;20531;-79
2022/06/20 02:50:57;;;;;;;5.60;2.10;;;14.20;99.90;;;;;;5060354;28;20080;-77
2022/06/20 02:53:49;;;;;;;7.50;3.10;;;14.20;99.90;;;;;;5046048;28;20059;-78
2022/06/20 02:56:44;;;;;;;5.20;2.20;;;14.20;99.90;;;;;;5032973;28;20180;-77
2022/06/20 02:59:35;;;;;;;4.57;2.83;;;14.20;99.90;;;;;;5047643;28;20098;-77
2022/06/20 03:02:28;;;;;;;5.53;3.30;;;14.20;99.90;;;;;;5030692;28;20056;-77
2022/06/20 03:05:15;;;;;;;11.65;7.70;;;14.20;99.90;;;;;;5046423;28;20052;-77
2022/06/20 03:08:04;;;;;;;16.63;8.85;;;14.20;99.90;;;;;;5050666;28;20064;-77
2022/06/20 03:10:54;;;;;;;8.10;4.57;;;14.20;99.90;;;;;;5051582;28;20132;-78
2022/06/20 03:13:41;;;;;;;8.65;4.10;;;14.10;99.90;;;;;;5051942;28;20059;-78
2022/06/20 03:16:29;;;;;;;4.72;2.45;;;14.10;99.90;;;;;;5048079;28;20142;-77
2022/06/20 03:19:19;;;;;;;15.85;6.57;;;14.10;99.90;;;;;;5048638;28;20138;-77
2022/06/20 03:22:10;;;;;;;14.00;8.20;;;14.10;99.90;;;;;;5044061;28;20048;-78
2022/06/20 03:24:57;;;;;;;9.00;4.30;;;14.10;99.90;;;;;;5032230;28;20056;-77
2022/06/20 03:27:45;;;;;;;6.72;2.28;;;14.10;99.90;;;;;;5051799;28;20048;-77
2022/06/20 03:30:33;;;;;;;2.13;1.25;;;14.20;99.90;;;;;;5052269;28;20056;-77
2022/06/20 03:33:21;;;;;;;4.40;1.67;;;14.10;99.90;;;;;;5052437;28;20475;-77
2022/06/20 03:36:13;;;;;;;7.30;2.72;;;14.20;99.90;;;;;;5048089;28;20424;-77
2022/06/20 03:39:15;;;;;;;8.80;2.72;;;14.20;99.90;;;;;;5051411;28;20055;-78
2022/06/20 03:42:04;;;;;;;3.88;1.60;;;14.20;99.90;;;;;;5051019;28;20125;-78
2022/06/20 03:44:54;;;;;;;4.28;1.35;;;14.20;99.90;;;;;;5037068;28;20129;-77
2022/06/20 03:47:45;;;;;;;3.10;1.00;;;14.20;99.90;;;;;;5045424;28;20064;-77
2022/06/20 03:50:36;;;;;;;3.92;1.20;;;14.30;99.90;;;;;;5042136;28;20071;-77
2022/06/20 03:53:28;;;;;;;4.32;1.10;;;14.30;99.90;;;;;;5049732;28;21493;-78
2022/06/20 03:56:19;;;;;;;3.28;0.80;;;14.30;99.90;;;;;;5031923;28;20531;-79
2022/06/20 03:59:12;;;;;;;4.35;1.48;;;14.30;99.90;;;;;;5046248;28;20064;-79
2022/06/20 04:02:03;;;;;;;4.70;0.80;;;14.30;99.90;;;;;;5051042;28;20130;-77
2022/06/20 04:04:55;;;;;;;7.05;1.55;;;14.30;99.90;;;;;;5050873;28;20531;-79
2022/06/20 04:07:46;;;;;;;2.65;0.93;;;14.40;99.90;;;;;;5049086;28;20052;-78
2022/06/20 04:13:48;;;;;;;2.13;1.20;;;14.40;99.90;;;;;;5042848;28;20064;-78
2022/06/20 04:16:40;;;;;;;3.67;0.73;;;14.40;99.90;;;;;;5031957;28;20070;-78
2022/06/20 04:19:30;;;;;;;4.90;1.45;;;14.40;99.90;;;;;;5051275;28;20063;-78
2022/06/20 04:22:20;;;;;;;4.07;1.35;;;14.50;99.90;;;;;;5047291;28;20051;-77
2022/06/20 04:25:19;;;;;;;2.97;1.58;;;14.50;99.90;;;;;;5051160;28;20064;-78
2022/06/20 04:28:15;;;;;;;3.45;0.82;;;14.60;99.90;;;;;;5049663;28;20202;-78
2022/06/20 04:31:10;;;;;;;1.67;0.80;;;14.70;99.90;;;;;;5048920;28;20094;-77
2022/06/20 04:34:04;;;;;;;4.57;0.93;;;14.80;99.90;;;;;;5050722;28;20068;-78
2022/06/20 04:36:57;;;;;;;2.45;1.02;;;14.90;99.90;;;;;;5049331;28;20134;-78
2022/06/20 04:39:49;;;;;;;4.07;1.13;;;15.00;99.90;;;;;;5047548;28;20532;-78
2022/06/20 04:42:40;;;;;;;4.10;0.90;;;15.00;99.90;;;;;;5051137;28;20455;-78
2022/06/20 04:45:30;;;;;;;4.50;1.40;;;15.10;99.90;;;;;;5028415;28;20060;-78
2022/06/20 04:48:19;;;;;;;4.38;0.95;;;15.20;99.90;;;;;;5034242;28;20122;-78
2022/06/20 04:51:09;;;;;;;2.03;0.75;;;15.40;99.90;;;;;;5048245;28;20425;-77
2022/06/20 04:53:57;;;;;;;2.45;1.20;;;15.50;99.90;;;;;;5049428;28;20421;-76
2022/06/20 04:56:43;;;;;;;7.35;1.02;;;15.50;99.90;;;;;;5050050;28;20141;-76
2022/06/20 04:59:32;;;;;;;1.65;1.20;;;15.60;99.90;;;;;;5042125;28;20139;-76
2022/06/20 05:02:21;;;;;;;3.67;1.10;;;15.60;99.90;;;;;;5050129;28;20524;-76
2022/06/20 05:05:13;;;;;;;2.10;0.93;;;15.70;99.90;;;;;;5049653;28;20448;-78
2022/06/20 05:08:01;;;;;;;2.13;0.85;;;15.70;99.90;;;;;;5048865;28;20397;-78
2022/06/20 05:10:52;;;;;;;2.50;0.70;;;15.70;99.90;;;;;;5051223;28;20078;-79
2022/06/20 05:13:46;;;;;;;8.57;3.50;;;15.80;99.90;;;;;;5043995;28;20056;-76
2022/06/20 05:16:43;;;;;;;2.10;1.00;;;15.80;99.90;;;;;;5039868;28;20190;-75
2022/06/20 05:19:35;;;;;;;1.58;0.95;;;15.80;99.90;;;;;;5050321;28;20060;-76
2022/06/20 05:22:27;;;;;;;2.33;1.10;;;15.90;99.90;;;;;;5050908;28;20178;-75
2022/06/20 05:25:18;;;;;;;1.88;0.80;;;16.10;99.90;;;;;;5042361;28;20183;-78
2022/06/20 05:28:13;;;;;;;2.75;1.13;;;16.40;99.90;;;;;;5048509;28;20055;-76
2022/06/20 05:31:06;;;;;;;5.35;2.85;;;16.70;99.90;;;;;;5048868;28;20067;-76
2022/06/20 05:33:57;;;;;;;3.97;0.90;;;16.90;99.90;;;;;;5029244;28;20068;-76
2022/06/20 05:36:30;;;;;;;3.40;1.02;;;17.00;99.90;;;;;;5040322;28;20076;-76
2022/06/20 05:39:02;;;;;;;1.35;1.25;;;17.00;99.90;;;;;;5043576;28;20049;-77
2022/06/20 05:41:30;;;;;;;2.58;1.35;;;17.30;99.90;;;;;;5044379;28;20057;-80
2022/06/20 05:43:59;;;;;;;3.60;0.98;;;17.60;99.90;;;;;;5033249;28;20431;-79
2022/06/20 05:46:37;;;;;;;5.47;1.17;;;17.80;99.90;;;;;;5048420;28;20393;-79
2022/06/20 05:49:10;;;;;;;3.10;0.80;;;18.20;99.90;;;;;;5048478;28;20041;-80
2022/06/20 05:51:41;;;;;;;2.78;1.00;;;18.30;99.90;;;;;;5047773;28;20091;-77
2022/06/20 05:54:14;;;;;;;3.75;1.20;;;18.60;99.90;;;;;;5047996;28;20052;-77
2022/06/20 05:56:45;;;;;;;2.97;1.25;;;18.50;99.90;;;;;;5057010;28;20052;-77
2022/06/20 05:59:38;;;;;;;3.88;1.75;;;18.30;99.90;;;;;;5044434;28;20056;-77
2022/06/20 06:02:18;;;;;;;2.85;1.50;;;18.10;99.90;;;;;;5046373;28;20041;-77
2022/06/20 06:04:50;;;;;;;2.58;0.90;;;18.10;99.90;;;;;;5042211;28;20045;-77
2022/06/20 06:07:25;;;;;;;2.33;1.50;;;18.40;99.90;;;;;;5037679;28;20132;-77
2022/06/20 06:09:59;;;;;;;4.90;1.10;;;19.20;99.90;;;;;;5032876;28;20056;-77
2022/06/20 06:12:32;;;;;;;3.30;1.10;;;19.60;99.90;;;;;;5049887;28;20112;-78
2022/06/20 06:15:12;;;;;;;3.25;1.00;;;19.80;99.90;;;;;;5031591;28;20037;-77
2022/06/20 06:17:46;;;;;;;2.47;1.00;;;20.00;99.90;;;;;;5039964;28;20049;-77
2022/06/20 06:20:18;;;;;;;2.15;0.70;;;20.00;99.90;;;;;;5051601;28;20409;-78
2022/06/20 06:22:50;;;;;;;3.55;1.25;;;20.00;99.90;;;;;;5049892;28;21056;-77
2022/06/20 06:25:27;;;;;;;2.03;1.10;;;19.90;99.90;;;;;;5041931;28;20052;-79
2022/06/20 06:27:58;;;;;;;1.77;0.93;;;19.70;99.90;;;;;;5043703;28;20063;-78
2022/06/20 06:30:31;;;;;;;3.55;1.58;;;19.50;99.90;;;;;;5048473;28;20493;-78
2022/06/20 06:33:05;;;;;;;4.78;1.17;;;19.40;99.90;;;;;;5042754;28;20037;-77
2022/06/20 06:35:37;;;;;;;4.72;0.88;;;19.40;99.90;;;;;;5038870;28;20520;-77
2022/06/20 06:38:08;;;;;;;4.07;1.10;;;19.40;99.90;;;;;;5038561;28;20045;-77
2022/06/20 06:40:41;;;;;;;19.23;10.82;;;19.30;99.90;;;;;;5038358;28;20060;-77
2022/06/20 06:43:17;;;;;;;7.95;4.00;;;19.30;99.90;;;;;;5038415;28;20190;-77
2022/06/20 06:45:47;;;;;;;2.95;1.30;;;19.30;99.90;;;;;;5046660;28;20467;-77
2022/06/20 06:48:20;;;;;;;4.05;1.95;;;19.30;99.90;;;;;;5042479;28;20509;-78
2022/06/20 06:50:51;;;;;;;11.75;1.83;;;19.40;99.90;;;;;;5044518;28;20059;-78
2022/06/20 06:53:23;;;;;;;5.47;3.70;;;19.70;99.90;;;;;;5046608;28;20054;-77
2022/06/20 06:55:52;;;;;;;;;;;19.90;99.90;;;;;;5035629;28;20033;-77
2022/06/20 06:58:26;;;;;;;4.05;1.00;;;20.00;99.90;;;;;;5037728;28;19987;-78
2022/06/20 07:01:01;;;;;;;5.68;1.50;;;20.00;99.90;;;;;;5042377;28;20111;-79
2022/06/20 07:03:34;;;;;;;4.53;0.93;;;20.10;99.90;;;;;;5042781;28;20049;-79
2022/06/20 07:06:06;;;;;;;5.35;0.98;;;20.00;99.90;;;;;;5038727;28;20060;-78
2022/06/20 07:08:39;;;;;;;7.20;1.17;;;20.00;99.90;;;;;;5045475;28;20232;-76
2022/06/20 07:11:18;;;;;;;1.67;1.38;;;19.90;99.90;;;;;;5040184;28;20303;-78
2022/06/20 07:13:51;;;;;;;2.78;1.30;;;19.80;99.90;;;;;;5045828;28;20049;-77
2022/06/20 07:16:26;;;;;;;2.85;1.88;;;19.70;99.90;;;;;;5045552;28;20126;-78
2022/06/20 07:18:56;;;;;;;4.90;2.20;;;19.60;99.90;;;;;;5037264;28;20143;-77
2022/06/20 07:21:26;;;;;;;2.58;1.67;;;19.50;99.90;;;;;;5047852;28;20053;-77
2022/06/20 07:23:56;;;;;;;6.47;1.42;;;19.40;99.90;;;;;;5043221;28;20520;-79
2022/06/20 07:26:27;;;;;;;3.28;1.38;;;19.30;99.90;;;;;;5047352;28;20519;-79
2022/06/20 07:28:58;;;;;;;4.57;1.25;;;19.20;99.90;;;;;;5042428;28;20177;-79
2022/06/20 07:31:32;;;;;;;4.72;1.05;;;19.00;99.90;;;;;;5067051;28;20421;-79
2022/06/20 07:34:06;;;;;;;5.30;1.58;;;18.80;99.90;;;;;;5057775;28;20045;-79
2022/06/20 07:36:41;;;;;;;2.15;1.10;;;18.60;99.90;;;;;;5047454;28;20059;-80
2022/06/20 07:39:16;;;;;;;2.28;1.50;;;18.40;99.90;;;;;;5045379;28;20048;-78
2022/06/20 07:41:50;;;;;;;5.65;1.17;;;18.30;99.90;;;;;;5054170;28;20068;-80
2022/06/20 07:44:24;;;;;;;3.97;1.50;;;18.20;99.90;;;;;;5047582;28;20398;-79
2022/06/20 07:46:58;;;;;;;3.80;1.27;;;18.10;99.90;;;;;;5049008;28;20052;-78
2022/06/20 07:49:31;;;;;;;2.58;1.50;;;17.90;99.90;;;;;;5047115;28;20072;-78
2022/06/20 07:52:03;;;;;;;6.30;1.55;;;17.80;99.90;;;;;;5046761;28;20076;-78
2022/06/20 07:54:34;;;;;;;6.53;1.73;;;17.80;99.90;;;;;;5041846;28;20118;-79
2022/06/20 07:57:06;;;;;;;3.33;1.50;;;17.70;99.90;;;;;;5030984;28;20049;-79
2022/06/20 07:59:38;;;;;;;4.45;2.25;;;17.70;99.90;;;;;;5044932;28;20393;-78
2022/06/20 08:02:13;;;;;;;3.90;1.40;;;17.60;99.90;;;;;;5044695;28;20491;-77
2022/06/20 08:04:42;;;;;;;2.70;1.42;;;17.60;99.90;;;;;;5043267;28;20045;-77
2022/06/20 08:07:17;;;;;;;4.72;1.30;;;17.50;99.90;;;;;;5046399;28;20053;-77
2022/06/20 08:09:51;;;;;;;3.58;1.15;;;17.60;99.90;;;;;;5044778;28;20059;-77
2022/06/20 08:12:25;;;;;;;6.13;1.63;;;17.60;99.90;;;;;;5047474;28;20508;-78
2022/06/20 08:14:58;;;;;;;2.78;1.30;;;17.70;99.90;;;;;;5046078;28;20083;-78
2022/06/20 08:17:29;;;;;;;;;;;17.70;99.90;;;;;;5043054;28;20052;-78
2022/06/20 08:19:58;;;;;;;5.30;1.40;;;17.80;99.90;;;;;;5053785;28;19925;-79
2022/06/20 08:23:06;;;;;;;7.13;1.45;;;17.60;99.90;;;;;;5043274;28;20049;-78
2022/06/20 08:25:39;;;;;;;3.28;1.00;;;17.50;99.90;;;;;;5023288;28;20497;-77
2022/06/20 08:28:13;;;;;;;3.67;1.48;;;17.30;99.90;;;;;;5036785;28;20041;-77
2022/06/20 08:30:48;;;;;;;3.58;1.58;;;17.20;99.90;;;;;;5045968;28;20049;-78
2022/06/20 08:33:24;;;;;;;3.80;1.20;;;17.10;99.90;;;;;;5047690;28;20393;-78
2022/06/20 08:35:57;;;;;;;3.90;1.40;;;17.00;99.90;;;;;;5045256;28;20135;-78
2022/06/20 08:38:31;;;;;;;2.75;1.15;;;16.80;99.90;;;;;;5045705;28;20049;-78
2022/06/20 08:41:24;;;;;;;6.22;1.38;;;16.70;99.90;;;;;;5047194;28;20558;-79
2022/06/20 08:44:16;;;;;;;5.87;1.70;;;16.70;99.90;;;;;;5036776;23;20072;-76
2022/06/20 08:47:09;;;;;;;4.35;1.52;;;16.60;99.90;;;;;;4990405;28;20058;-77
2022/06/20 08:50:16;;;;;;;8.40;2.78;;;16.60;99.90;;;;;;5011802;28;20050;-78
2022/06/20 08:53:14;;;;;;;10.68;1.60;;;16.60;99.90;;;;;;4989072;28;20089;-77
2022/06/20 08:56:13;;;;;;;57.75;4.32;;;16.60;99.90;;;;;;4988605;28;20046;-77
2022/06/20 08:58:51;;;;;;;4.55;1.83;;;16.60;99.90;;;;;;5004200;28;20123;-78
2022/06/20 09:01:28;;;;;;;6.65;2.03;;;16.60;99.90;;;;;;4990548;28;20054;-78
2022/06/20 09:04:16;;;;;;;5.10;1.50;;;16.60;99.90;;;;;;5006939;28;20149;-76
2022/06/20 09:07:07;;;;;;;2.92;1.38;;;16.60;99.90;;;;;;4990539;28;20058;-76
2022/06/20 09:10:00;;;;;;;4.22;1.55;;;16.60;99.90;;;;;;5006514;28;20045;-80
2022/06/20 09:12:41;;;;;;;4.53;2.13;;;16.60;99.90;;;;;;5006235;28;20060;-77
2022/06/20 09:15:23;;;;;;;4.05;1.60;;;16.70;99.90;;;;;;5006328;28;20476;-81
2022/06/20 09:18:00;;;;;;;8.77;1.70;;;16.70;99.90;;;;;;5005703;28;20466;-77
2022/06/20 09:20:34;;;;;;;7.40;1.80;;;16.70;99.90;;;;;;5006140;28;20556;-77
2022/06/20 09:23:28;;;;;;;6.25;1.15;;;16.70;99.90;;;;;;5014796;28;20417;-80
2022/06/20 09:26:02;;;;;;;3.00;1.42;;;16.70;99.90;;;;;;5008188;28;20188;-78
2022/06/20 09:28:59;;;;;;;2.13;1.40;;;16.60;99.90;;;;;;4983340;28;20064;-81
2022/06/20 09:31:52;;;;;;;4.68;1.40;;;16.50;99.90;;;;;;5007378;28;20061;-78
2022/06/20 09:34:44;;;;;;;4.38;1.55;;;16.50;99.90;;;;;;4992621;28;20046;-77
2022/06/20 09:37:50;;;;;;;5.18;1.48;;;16.50;99.90;;;;;;5009996;28;20053;-77
2022/06/20 09:40:24;;;;;;;4.28;1.50;;;16.40;99.90;;;;;;5003947;28;20060;-77
2022/06/20 09:43:01;;;;;;;6.38;1.95;;;16.40;99.90;;;;;;4983468;28;20073;-77
2022/06/20 09:45:40;;;;;;;4.85;2.08;;;16.40;99.90;;;;;;5005743;28;20085;-79
2022/06/20 09:48:16;;;;;;;4.68;1.40;;;16.40;99.90;;;;;;5019516;28;20061;-78
2022/06/20 09:50:53;;;;;;;9.98;3.38;;;16.50;99.90;;;;;;5006609;28;20548;-75
2022/06/20 09:53:36;;;;;;;4.18;1.52;;;16.60;99.90;;;;;;4991361;28;20533;-77
2022/06/20 09:56:11;;;;;;;5.15;1.48;;;16.70;99.90;;;;;;5011614;28;20042;-75
2022/06/20 09:58:47;;;;;;;5.80;1.58;;;16.80;99.90;;;;;;5018920;28;20524;-75
2022/06/20 10:01:22;;;;;;;3.28;1.60;;;17.00;99.90;;;;;;5000113;28;20141;-74
2022/06/20 10:04:01;;;;;;;4.28;1.70;;;17.10;99.90;;;;;;5016397;28;20303;-73
2022/06/20 10:06:41;;;;;;;2.92;1.58;;;17.30;99.90;;;;;;5008978;28;20514;-74
2022/06/20 10:09:14;;;;;;;5.07;1.38;;;17.50;99.90;;;;;;4990703;28;20496;-74
2022/06/20 10:11:50;;;;;;;5.32;1.58;;;17.70;99.90;;;;;;5012762;28;20112;-76
2022/06/20 10:14:33;;;;;;;2.10;1.48;;;17.90;99.90;;;;;;5005912;28;20426;-75
2022/06/20 10:17:09;;;;;;;6.10;1.20;;;18.10;99.90;;;;;;4988322;28;20049;-74
2022/06/20 10:19:45;;;;;;;1.40;1.17;;;18.30;99.90;;;;;;4996933;28;20050;-75
2022/06/20 10:22:23;;;;;;;7.10;1.27;;;18.50;99.90;;;;;;4997193;28;20045;-77
2022/06/20 10:25:24;;;;;;;3.10;1.13;;;18.70;99.90;;;;;;5004913;28;20070;-76
2022/06/20 10:28:01;;;;;;;3.97;1.13;;;18.90;99.90;;;;;;5008250;28;20054;-75
2022/06/20 10:30:42;;;;;;;2.28;1.10;;;18.90;99.90;;;;;;4997880;28;20054;-77
2022/06/20 10:33:27;;;;;;;5.45;1.73;;;19.00;99.90;;;;;;5003838;28;20110;-75
2022/06/20 10:36:02;;;;;;;3.10;1.42;;;19.30;99.90;;;;;;5011728;28;20045;-76
2022/06/20 10:38:39;;;;;;;4.15;1.27;;;19.50;99.90;;;;;;5029773;28;20073;-75
2022/06/20 10:41:10;;;;;;;2.42;1.40;;;19.70;99.90;;;;;;5024779;28;20150;-76
2022/06/20 10:44:03;;;;;;;4.43;1.00;;;20.00;99.90;;;;;;5020094;28;20049;-75
2022/06/20 10:46:41;;;;;;;;;;;20.30;99.90;;;;;;5008060;28;20068;-76
2022/06/20 10:49:31;;;;;;;3.45;1.15;;;20.60;99.90;;;;;;5008660;28;20216;-75
2022/06/20 10:52:17;;;;;;;2.88;0.85;;;20.80;99.90;;;;;;5018770;28;20057;-77
2022/06/20 10:54:57;;;;;;;2.85;0.80;;;21.10;99.90;;;;;;5011290;28;20125;-77
2022/06/20 10:57:36;;;;;;;1.95;0.80;;;21.30;99.90;;;;;;5007763;28;20053;-79
2022/06/20 11:00:10;;;;;;;1.75;1.23;;;21.40;99.90;;;;;;5007058;28;20053;-78
2022/06/20 11:03:13;;;;;;;3.30;1.20;;;21.30;99.90;;;;;;5025225;28;20115;-75
2022/06/20 11:05:50;;;;;;;1.52;0.90;;;21.40;99.90;;;;;;4988248;28;20073;-73
2022/06/20 11:08:31;;;;;;;2.22;1.83;;;21.70;99.90;;;;;;5010085;28;20554;-78
2022/06/20 11:11:17;;;;;;;3.53;1.30;;;22.00;99.90;;;;;;4999740;28;20049;-76
2022/06/20 11:13:50;;;;;;;2.00;1.40;;;22.30;99.40;;;;;;5028789;28;20521;-74
2022/06/20 11:16:29;;;;;;;1.00;0.90;;;22.60;98.10;;;;;;5005598;28;20054;-74
2022/06/20 11:19:11;;;;;;;7.93;2.92;;;22.90;96.10;;;;;;5003761;28;20053;-78
2022/06/20 11:21:47;;;;;;;2.58;1.10;;;22.80;95.50;;;;;;4990019;28;20105;-75
2022/06/20 11:24:27;;;;;;;2.75;1.23;;;22.70;94.80;;;;;;4988120;28;20069;-75
2022/06/20 11:27:04;;;;;;;2.90;1.02;;;22.40;96.10;;;;;;4987105;28;20477;-75
2022/06/20 11:29:48;;;;;;;3.95;0.82;;;22.30;94.60;;;;;;5017845;28;20226;-77
2022/06/20 11:32:25;;;;;;;1.75;0.95;;;22.10;95.90;;;;;;5026872;28;20057;-76
2022/06/20 11:35:12;;;;;;;3.85;1.67;;;22.20;95.80;;;;;;5010662;28;20140;-75
2022/06/20 11:37:59;;;;;;;3.00;2.10;;;22.20;96.20;;;;;;5020270;28;20489;-76
2022/06/20 11:40:49;;;;;;;4.80;1.00;;;22.40;95.20;;;;;;5028004;28;20140;-75
2022/06/20 11:43:44;;;;;;;1.92;1.02;;;22.70;95.50;;;;;;4993575;28;20059;-77
2022/06/20 11:46:38;;;;;;;1.30;0.95;;;23.10;94.60;;;;;;5006200;28;20385;-75
2022/06/20 11:49:19;;;;;;;2.63;0.85;;;23.40;94.40;;;;;;5000208;28;20128;-75
2022/06/20 11:51:54;;;;;;;2.85;1.05;;;23.30;93.90;;;;;;4990851;28;20077;-75
2022/06/20 11:54:33;;;;;;;1.98;1.10;;;23.40;93.40;;;;;;5009187;28;20061;-76
2022/06/20 11:57:08;;;;;;;2.47;1.65;;;24.10;91.60;;;;;;5014077;28;20417;-75
2022/06/20 11:59:47;;;;;;;1.25;0.82;;;25.30;89.50;;;;;;5009809;28;20055;-75
2022/06/20 12:02:34;;;;;;;3.17;1.30;;;26.20;83.90;;;;;;5026896;28;20057;-77
2022/06/20 12:05:27;;;;;;;1.45;0.93;;;26.30;78.30;;;;;;5003042;28;20053;-75
2022/06/20 12:08:00;;;;;;;1.10;0.98;;;25.80;73.50;;;;;;4989316;28;20050;-76
2022/06/20 12:10:40;;;;;;;1.25;0.80;;;25.00;73.80;;;;;;4996565;28;20490;-77
2022/06/20 12:13:19;;;;;;;2.75;1.42;;;24.20;78.00;;;;;;5005260;28;20545;-76
2022/06/20 12:15:55;;;;;;;2.17;1.00;;;23.40;80.30;;;;;;5010673;28;20188;-76
2022/06/20 12:24:21;;;;;;;1.77;1.05;;;21.60;91.70;;;;;;5001437;28;20045;-77
2022/06/20 12:26:49;;;;;;;1.17;0.70;;;21.20;91.70;;;;;;5026053;28;20580;-77
2022/06/20 12:29:20;;;;;;;2.17;0.80;;;20.90;91.70;;;;;;5026916;28;20057;-80
2022/06/20 12:31:51;;;;;;;1.88;0.88;;;20.70;93.50;;;;;;5025041;28;20046;-77
2022/06/20 12:34:32;;;;;;;1.60;1.20;;;20.50;95.80;;;;;;4998670;28;20049;-72
2022/06/20 12:37:11;;;;;;;3.28;1.25;;;20.40;96.00;;;;;;5028168;28;20076;-76
2022/06/20 12:39:43;;;;;;;3.95;1.00;;;20.30;97.80;;;;;;5009006;28;20418;-75
2022/06/20 12:42:23;;;;;;;2.73;0.90;;;20.30;98.80;;;;;;5018804;28;20065;-75
2022/06/20 12:45:01;;;;;;;1.27;0.82;;;20.20;99.90;;;;;;4988930;28;20380;-76
2022/06/20 12:48:00;;;;;;;2.45;1.08;;;20.20;98.90;;;;;;4985421;28;20506;-77
2022/06/20 12:50:35;;;;;;;1.70;0.80;;;20.00;98.80;;;;;;5014291;28;20073;-77
2022/06/20 12:53:36;;;;;;;1.45;0.88;;;19.90;99.70;;;;;;5008412;28;20241;-76
2022/06/20 12:56:15;;;;;;;1.05;0.77;;;19.80;98.90;;;;;;4999469;28;20053;-75
2022/06/20 12:59:02;;;;;;;1.73;0.98;;;19.60;98.90;;;;;;5009364;28;20495;-77
2022/06/20 13:01:39;;;;;;;2.15;0.98;;;19.40;99.90;;;;;;5002423;28;20095;-76
2022/06/20 13:04:31;;;;;;;1.70;0.77;;;19.20;99.90;;;;;;5006105;28;20092;-75
2022/06/20 13:07:30;;;;;;;2.20;1.10;;;19.00;99.90;;;;;;4989186;28;20568;-75
2022/06/20 13:10:33;;;;;;;5.68;1.77;;;18.90;99.90;;;;;;5015531;28;20042;-76
2022/06/20 13:13:26;;;;;;;4.68;2.45;;;18.80;99.90;;;;;;5006916;28;20050;-76
2022/06/20 13:16:02;;;;;;;5.78;1.25;;;18.60;99.90;;;;;;5008762;28;20127;-74
2022/06/20 13:18:53;;;;;;;7.30;2.67;;;18.50;99.90;;;;;;5018700;28;20050;-75
2022/06/20 13:21:29;;;;;;;6.75;2.17;;;18.50;99.90;;;;;;5018510;28;20064;-77
2022/06/20 13:24:12;;;;;;;2.85;0.93;;;18.40;99.90;;;;;;5011717;28;20049;-76
2022/06/20 13:26:54;;;;;;;2.78;1.10;;;18.40;99.90;;;;;;5004159;28;20042;-76
2022/06/20 13:29:35;;;;;;;2.37;1.30;;;18.30;99.90;;;;;;5006272;28;20053;-74
2022/06/20 13:32:09;;;;;;;4.78;0.90;;;18.30;99.90;;;;;;4998728;28;20506;-75
2022/06/20 13:34:48;;;;;;;3.92;1.60;;;18.30;99.90;;;;;;5014839;28;20053;-75
2022/06/20 13:37:26;;;;;;;6.55;1.73;;;18.40;99.90;;;;;;5001464;28;20058;-76
2022/06/20 13:40:01;;;;;;;4.35;1.80;;;18.40;99.90;;;;;;5014734;28;20054;-75
2022/06/20 13:42:33;;;;;;;4.40;2.25;;;18.40;99.90;;;;;;5016326;28;20072;-78
2022/06/20 13:45:08;;;;;;;5.95;1.98;;;18.40;99.90;;;;;;4990912;28;20046;-76
2022/06/20 13:47:54;;;;;;;6.90;2.38;;;18.30;99.90;;;;;;5002965;28;20049;-76
2022/06/20 13:50:28;;;;;;;10.95;2.90;;;18.20;99.90;;;;;;5007707;28;20061;-76
2022/06/20 13:53:05;;;;;;;5.28;1.98;;;18.10;99.90;;;;;;5002777;28;20605;-77
2022/06/20 13:55:43;;;;;;;5.53;2.10;;;18.00;99.90;;;;;;4992863;28;20052;-78
2022/06/20 13:58:19;;;;;;;5.43;2.65;;;17.80;99.90;;;;;;5002959;28;20046;-79
2022/06/20 14:00:56;;;;;;;5.28;2.15;;;17.80;99.90;;;;;;5007730;28;20056;-77
2022/06/20 14:03:30;;;;;;;8.90;2.38;;;17.60;99.90;;;;;;5003562;28;20053;-77
2022/06/20 14:06:14;;;;;;;9.30;3.35;;;17.60;99.90;;;;;;4975388;28;21227;-78
2022/06/20 14:08:49;;;;;;;7.82;2.95;;;17.60;99.90;;;;;;4989778;28;20053;-77
2022/06/20 14:11:40;;;;;;;5.68;2.58;;;17.60;99.90;;;;;;5005035;28;20137;-77
2022/06/20 14:14:18;;;;;;;6.88;2.80;;;17.60;99.90;;;;;;4967476;28;20056;-76